Time;durP1;ratioP1;P1;durP2;ratioP2;P2;SDS_P1;SDS_P2;PMS_P1;PMS_P2;Temp;Humidity;BMP_temperature;BMP_pressure;BME280_temperature;BME280_humidity;BME280_pressure;Samples;Min_cycle;Max_cycle;Signal;HPM_P1;HPM_P2
2024/03/25 00:01:42;;;;;;;;;;;5.20;88.10;;;;;;5100677;27;19993;-73
2024/03/25 00:04:08;;;;;;;;;;;5.20;88.10;;;;;;5089863;28;20767;-73
2024/03/25 00:06:34;;;;;;;;;;;5.20;88.20;;;;;;5099733;28;20487;-73
2024/03/25 00:09:03;;;;;;;;;;;5.10;88.70;;;;;;5102607;28;20211;-73
2024/03/25 00:11:29;;;;;;;;;;;5.00;88.90;;;;;;5103198;28;19989;-73
2024/03/25 00:13:56;;;;;;;;;;;5.00;89.30;;;;;;5100473;27;21223;-73
2024/03/25 00:16:22;;;;;;;;;;;4.90;89.80;;;;;;5103094;27;19989;-73
2024/03/25 00:18:47;;;;;;;;;;;4.80;90.10;;;;;;5101195;28;20878;-73
2024/03/25 00:21:13;;;;;;;;;;;4.80;90.30;;;;;;5103124;28;20573;-73
2024/03/25 00:23:39;;;;;;;;;;;4.80;90.40;;;;;;5095522;27;19988;-74
2024/03/25 00:26:04;;;;;;;;;;;4.70;90.60;;;;;;5102833;28;19992;-73
2024/03/25 00:28:30;;;;;;;;;;;4.70;90.70;;;;;;5102563;28;20046;-73
2024/03/25 00:30:55;;;;;;;;;;;4.60;90.90;;;;;;5102795;28;20345;-73
2024/03/25 00:33:21;;;;;;;;;;;4.60;90.90;;;;;;5099036;27;20004;-73
2024/03/25 00:35:47;;;;;;;;;;;4.50;91.30;;;;;;5101001;28;20721;-73
2024/03/25 00:38:13;;;;;;;;;;;4.50;91.40;;;;;;5101272;28;19992;-74
2024/03/25 00:40:38;;;;;;;;;;;4.50;91.40;;;;;;5101837;28;20039;-74
2024/03/25 00:43:04;;;;;;;;;;;4.50;91.40;;;;;;5102283;28;20380;-74
2024/03/25 00:45:30;;;;;;;;;;;4.50;91.60;;;;;;5102465;28;19992;-74
2024/03/25 00:47:59;;;;;;;;;;;4.30;91.70;;;;;;5102554;28;20379;-74
2024/03/25 00:50:25;;;;;;;;;;;4.40;91.80;;;;;;5102884;28;19993;-74
2024/03/25 00:52:51;;;;;;;;;;;4.30;91.80;;;;;;5102228;28;20472;-74
2024/03/25 00:55:16;;;;;;;;;;;4.30;91.90;;;;;;5088514;28;20007;-74
2024/03/25 00:57:42;;;;;;;;;;;4.30;91.80;;;;;;5101891;28;20083;-73
2024/03/25 01:00:08;;;;;;;;;;;4.20;91.80;;;;;;5102325;28;19992;-73
2024/03/25 01:02:34;;;;;;;;;;;4.30;91.90;;;;;;5102421;28;19999;-73
2024/03/25 01:04:59;;;;;;;;;;;4.30;91.70;;;;;;5102435;28;19997;-74
2024/03/25 01:07:25;;;;;;;;;;;4.20;91.70;;;;;;5102557;28;20021;-74
2024/03/25 01:09:51;;;;;;;;;;;4.30;91.60;;;;;;5102579;28;19996;-74
2024/03/25 01:12:16;;;;;;;;;;;4.10;91.90;;;;;;5102296;28;20608;-73
2024/03/25 01:14:42;;;;;;;;;;;4.10;92.00;;;;;;5103639;27;20018;-74
2024/03/25 01:17:08;;;;;;;;;;;4.10;92.00;;;;;;5102718;28;19992;-74
2024/03/25 01:19:33;;;;;;;;;;;4.10;91.90;;;;;;5086688;28;19989;-73
2024/03/25 01:21:59;;;;;;;;;;;4.10;91.80;;;;;;5102196;28;19992;-73
2024/03/25 01:24:25;;;;;;;;;;;4.10;91.80;;;;;;5101447;28;20722;-73
2024/03/25 01:26:51;;;;;;;;;;;4.00;92.00;;;;;;5100548;28;20594;-73
2024/03/25 01:29:17;;;;;;;;;;;4.00;91.90;;;;;;5100748;28;20028;-74
2024/03/25 01:31:42;;;;;;;;;;;4.00;91.90;;;;;;5105942;27;20718;-73
2024/03/25 01:34:08;;;;;;;;;;;4.00;92.00;;;;;;5106450;28;20020;-73
2024/03/25 01:36:35;;;;;;;;;;;3.90;92.10;;;;;;5106403;28;19996;-73
2024/03/25 01:39:00;;;;;;;;;;;3.90;92.20;;;;;;5106824;27;20099;-73
2024/03/25 01:41:26;;;;;;;;;;;3.90;92.30;;;;;;5106376;27;19999;-73
2024/03/25 01:43:52;;;;;;;;;;;3.90;92.30;;;;;;5105833;28;20039;-73
2024/03/25 01:46:18;;;;;;;;;;;3.90;92.10;;;;;;5106815;27;19988;-73
2024/03/25 01:48:44;;;;;;;;;;;3.90;92.00;;;;;;5106527;28;19992;-73
2024/03/25 01:51:10;;;;;;;;;;;3.90;92.00;;;;;;5106240;28;20010;-73
2024/03/25 01:53:36;;;;;;;;;;;3.90;92.10;;;;;;5103817;28;20012;-73
2024/03/25 01:56:02;;;;;;;;;;;3.80;92.10;;;;;;5108393;27;19996;-73
2024/03/25 01:58:29;;;;;;;;;;;3.80;92.30;;;;;;5106202;27;20114;-72
2024/03/25 02:00:55;;;;;;;;;;;3.70;92.50;;;;;;5103232;28;19989;-73
2024/03/25 02:03:22;;;;;;;;;;;3.70;92.50;;;;;;5107532;27;20027;-73
2024/03/25 02:05:50;;;;;;;;;;;3.70;92.50;;;;;;5105468;28;20017;-73
2024/03/25 02:08:17;;;;;;;;;;;3.60;92.50;;;;;;5105075;28;20463;-73
2024/03/25 02:10:43;;;;;;;;;;;3.60;92.70;;;;;;5105672;28;20009;-73
2024/03/25 02:13:08;;;;;;;;;;;3.60;92.60;;;;;;5105816;27;19992;-73
2024/03/25 02:15:35;;;;;;;;;;;3.50;92.90;;;;;;5112329;27;20642;-73
2024/03/25 02:18:00;;;;;;;;;;;3.50;92.90;;;;;;5105398;28;19993;-73
2024/03/25 02:20:26;;;;;;;;;;;3.40;93.10;;;;;;5106936;27;20324;-73
2024/03/25 02:22:51;;;;;;;;;;;3.50;93.00;;;;;;5105635;28;19989;-73
2024/03/25 02:25:17;;;;;;;;;;;3.50;92.90;;;;;;5105659;28;19993;-74
2024/03/25 02:27:43;;;;;;;;;;;3.40;93.10;;;;;;5105825;27;20000;-74
2024/03/25 02:30:10;;;;;;;;;;;3.40;93.10;;;;;;5109915;27;20049;-74
2024/03/25 02:32:36;;;;;;;;;;;3.30;93.40;;;;;;5105531;28;19999;-74
2024/03/25 02:35:03;;;;;;;;;;;3.30;93.80;;;;;;5109397;27;20004;-73
2024/03/25 02:37:29;;;;;;;;;;;3.30;93.30;;;;;;5102806;28;20028;-74
2024/03/25 02:39:57;;;;;;;;;;;3.20;93.40;;;;;;5105471;28;20645;-74
2024/03/25 02:42:23;;;;;;;;;;;3.30;93.70;;;;;;5099403;28;20087;-74
2024/03/25 02:44:48;;;;;;;;;;;3.30;93.60;;;;;;5104073;28;20462;-73
2024/03/25 02:47:14;;;;;;;;;;;3.20;93.60;;;;;;5105226;27;20069;-73
2024/03/25 02:49:39;;;;;;;;;;;3.20;93.50;;;;;;5105257;28;20372;-73
2024/03/25 02:52:06;;;;;;;;;;;3.20;93.90;;;;;;5104415;28;20091;-72
2024/03/25 02:54:31;;;;;;;;;;;3.10;94.20;;;;;;5104646;27;20019;-73
2024/03/25 02:56:57;;;;;;;;;;;3.10;94.00;;;;;;5104053;28;20429;-73
2024/03/25 02:59:22;;;;;;;;;;;3.10;93.90;;;;;;5108419;27;20111;-74
2024/03/25 03:01:48;;;;;;;;;;;3.00;94.10;;;;;;5101402;28;20039;-74
2024/03/25 03:04:13;;;;;;;;;;;3.00;94.30;;;;;;5104211;28;19992;-74
2024/03/25 03:06:39;;;;;;;;;;;2.90;94.40;;;;;;5103525;28;20591;-74
2024/03/25 03:09:05;;;;;;;;;;;3.00;94.50;;;;;;5103525;28;20539;-74
2024/03/25 03:11:30;;;;;;;;;;;2.90;94.60;;;;;;5104760;28;19993;-74
2024/03/25 03:13:56;;;;;;;;;;;2.90;94.70;;;;;;5104706;27;20085;-74
2024/03/25 03:16:21;;;;;;;;;;;3.00;94.50;;;;;;5105118;27;20455;-74
2024/03/25 03:18:47;;;;;;;;;;;2.90;94.60;;;;;;5106274;27;19996;-74
2024/03/25 03:21:13;;;;;;;;;;;2.80;94.70;;;;;;5104338;28;20506;-74
2024/03/25 03:23:38;;;;;;;;;;;2.80;94.80;;;;;;5102409;28;19996;-74
2024/03/25 03:26:04;;;;;;;;;;;2.80;94.80;;;;;;5104151;28;19996;-74
2024/03/25 03:28:29;;;;;;;;;;;2.80;94.80;;;;;;5103687;28;20610;-74
2024/03/25 03:30:55;;;;;;;;;;;2.80;94.70;;;;;;5104061;28;19989;-74
2024/03/25 03:33:21;;;;;;;;;;;2.80;94.80;;;;;;5103154;28;20048;-73
2024/03/25 03:35:46;;;;;;;;;;;2.70;95.20;;;;;;5102399;28;20058;-73
2024/03/25 03:38:12;;;;;;;;;;;2.60;95.20;;;;;;5100320;28;20038;-74
2024/03/25 03:40:37;;;;;;;;;;;2.60;95.30;;;;;;5103324;28;19993;-73
2024/03/25 03:43:03;;;;;;;;;;;2.60;95.30;;;;;;5104025;27;19988;-73
2024/03/25 03:45:32;;;;;;;;;;;2.60;95.40;;;;;;5103771;28;19992;-74
2024/03/25 03:47:58;;;;;;;;;;;2.60;95.40;;;;;;5103037;28;19988;-74
2024/03/25 03:50:23;;;;;;;;;;;2.60;95.50;;;;;;5104878;27;19989;-74
2024/03/25 03:52:49;;;;;;;;;;;2.60;95.40;;;;;;5100701;28;20681;-74
2024/03/25 03:55:14;;;;;;;;;;;2.50;95.60;;;;;;5085162;28;20018;-74
2024/03/25 03:57:42;;;;;;;;;;;2.50;95.70;;;;;;5101140;28;20003;-73
2024/03/25 04:00:08;;;;;;;;;;;2.50;95.70;;;;;;5097806;28;19996;-73
2024/03/25 04:02:34;;;;;;;;;;;2.40;95.80;;;;;;5102238;28;20489;-73
2024/03/25 04:05:00;;;;;;;;;;;2.40;95.90;;;;;;5103685;28;19992;-73
2024/03/25 04:07:28;;;;;;;;;;;2.40;95.90;;;;;;5102669;28;20546;-73
2024/03/25 04:09:54;;;;;;;;;;;2.50;95.80;;;;;;5102757;28;20042;-74
2024/03/25 04:12:20;;;;;;;;;;;2.40;95.70;;;;;;5102917;28;20093;-74
2024/03/25 04:14:55;;;;;;;;;;;2.50;95.70;;;;;;5102675;28;20057;-73
2024/03/25 04:17:21;;;;;;;;;;;2.40;95.70;;;;;;5104553;27;19993;-74
2024/03/25 04:19:50;;;;;;;;;;;2.40;95.60;;;;;;5102579;28;20739;-74
2024/03/25 04:22:16;;;;;;;;;;;2.50;95.50;;;;;;5102933;28;19993;-74
2024/03/25 04:24:42;;;;;;;;;;;2.30;95.50;;;;;;5103294;27;20057;-74
2024/03/25 04:27:08;;;;;;;;;;;2.30;96.00;;;;;;5101906;28;19993;-74
2024/03/25 04:29:33;;;;;;;;;;;2.30;95.90;;;;;;5102987;28;19995;-73
2024/03/25 04:31:59;;;;;;;;;;;2.30;96.00;;;;;;5102664;28;20827;-73
2024/03/25 04:34:24;;;;;;;;;;;2.30;95.90;;;;;;5102568;27;20018;-73
2024/03/25 04:36:50;;;;;;;;;;;2.30;96.00;;;;;;5101050;28;20036;-73
2024/03/25 04:39:15;;;;;;;;;;;2.20;95.90;;;;;;5101440;28;20035;-74
2024/03/25 04:41:41;;;;;;;;;;;2.30;95.80;;;;;;5102413;27;20000;-74
2024/03/25 04:44:06;;;;;;;;;;;2.30;95.80;;;;;;5102038;28;20000;-73
2024/03/25 04:46:32;;;;;;;;;;;2.30;95.70;;;;;;5102809;28;19995;-73
2024/03/25 04:48:57;;;;;;;;;;;2.30;95.70;;;;;;5103044;28;19998;-72
2024/03/25 04:51:23;;;;;;;;;;;2.30;95.70;;;;;;5099291;28;20787;-73
2024/03/25 04:53:49;;;;;;;;;;;2.20;96.00;;;;;;5108121;27;20513;-73
2024/03/25 04:56:15;;;;;;;;;;;2.30;95.60;;;;;;5104636;27;19988;-73
2024/03/25 04:58:40;;;;;;;;;;;2.20;95.70;;;;;;5106852;27;19997;-73
2024/03/25 05:01:06;;;;;;;;;;;2.20;95.70;;;;;;5099614;28;20570;-73
2024/03/25 05:03:31;;;;;;;;;;;2.20;95.60;;;;;;5107693;27;20344;-73
2024/03/25 05:05:58;;;;;;;;;;;2.20;95.40;;;;;;5101964;28;20027;-73
2024/03/25 05:08:23;;;;;;;;;;;2.30;95.10;;;;;;5102550;28;20095;-73
2024/03/25 05:10:49;;;;;;;;;;;2.40;94.70;;;;;;5102490;28;20610;-73
2024/03/25 05:13:15;;;;;;;;;;;2.30;94.80;;;;;;5102892;28;20072;-73
2024/03/25 05:15:40;;;;;;;;;;;2.30;94.90;;;;;;5106203;28;19996;-73
2024/03/25 05:18:06;;;;;;;;;;;2.30;94.60;;;;;;5102883;28;20455;-72
2024/03/25 05:20:32;;;;;;;;;;;2.30;94.80;;;;;;5101330;28;19996;-72
2024/03/25 05:22:58;;;;;;;;;;;2.30;95.00;;;;;;5102331;28;19989;-72
2024/03/25 05:25:28;;;;;;;;;;;2.40;94.50;;;;;;5102276;28;20046;-72
2024/03/25 05:27:54;;;;;;;;;;;2.40;94.20;;;;;;5102396;28;20076;-72
2024/03/25 05:30:19;;;;;;;;;;;2.40;94.20;;;;;;5102230;28;20002;-72
2024/03/25 05:32:45;;;;;;;;;;;2.40;94.10;;;;;;5104871;28;19995;-72
2024/03/25 05:35:11;;;;;;;;;;;2.40;94.20;;;;;;5103273;28;20031;-72
2024/03/25 05:37:37;;;;;;;;;;;2.40;94.30;;;;;;5097293;28;20655;-72
2024/03/25 05:40:03;;;;;;;;;;;2.40;94.30;;;;;;5101513;28;19995;-72
2024/03/25 05:42:28;;;;;;;;;;;2.40;94.20;;;;;;5100872;28;19992;-71
2024/03/25 05:44:54;;;;;;;;;;;2.40;94.30;;;;;;5101178;28;20448;-73
2024/03/25 05:47:19;;;;;;;;;;;2.30;94.30;;;;;;5100659;28;20004;-73
2024/03/25 05:49:46;;;;;;;;;;;2.30;94.50;;;;;;5102010;28;19989;-73
2024/03/25 05:52:12;;;;;;;;;;;2.30;94.50;;;;;;5100570;28;19989;-73
2024/03/25 05:54:37;;;;;;;;;;;2.30;94.40;;;;;;5093013;28;20013;-73
2024/03/25 05:57:03;;;;;;;;;;;2.40;94.20;;;;;;5101967;28;20474;-73
2024/03/25 05:59:29;;;;;;;;;;;2.40;94.20;;;;;;5101494;28;20109;-73
2024/03/25 06:01:55;;;;;;;;;;;3.00;93.30;;;;;;5096174;28;19996;-73
2024/03/25 06:04:20;;;;;;;;;;;3.80;91.30;;;;;;5102580;28;20526;-74
2024/03/25 06:06:46;;;;;;;;;;;4.30;89.80;;;;;;5101967;28;20102;-73
2024/03/25 06:09:11;;;;;;;;;;;4.70;87.80;;;;;;5102213;28;20501;-74
2024/03/25 06:11:37;;;;;;;;;;;4.70;87.20;;;;;;5108003;28;19989;-74
2024/03/25 06:14:02;;;;;;;;;;;4.80;86.40;;;;;;5107225;28;20123;-74
2024/03/25 06:16:28;;;;;;;;;;;5.10;85.10;;;;;;5102773;28;19993;-74
2024/03/25 06:18:54;;;;;;;;;;;5.30;84.00;;;;;;5105669;28;20057;-74
2024/03/25 06:21:19;;;;;;;;;;;5.40;82.90;;;;;;5106364;28;19993;-74
2024/03/25 06:23:45;;;;;;;;;;;5.60;81.60;;;;;;5103332;28;20878;-74
2024/03/25 06:26:10;;;;;;;;;;;5.20;82.70;;;;;;5106401;28;20021;-74
2024/03/25 06:28:36;;;;;;;;;;;5.30;83.00;;;;;;5105310;28;19985;-74
2024/03/25 06:36:30;;;;;;;;;;;6.10;79.80;;;;;;5103422;27;20034;-74
2024/03/25 06:38:55;;;;;;;;;;;6.50;78.50;;;;;;5108904;27;19989;-74
2024/03/25 06:41:21;;;;;;;;;;;6.80;77.20;;;;;;5107358;27;20045;-73
2024/03/25 06:43:46;;;;;;;;;;;7.10;75.40;;;;;;5105365;27;20079;-74
2024/03/25 06:46:12;;;;;;;;;;;7.30;74.60;;;;;;5108609;27;19993;-74
2024/03/25 06:48:38;;;;;;;;;;;7.30;73.30;;;;;;5116580;27;20063;-74
2024/03/25 06:51:03;;;;;;;;;;;6.70;74.30;;;;;;5103782;27;20014;-74
2024/03/25 06:53:29;;;;;;;;;;;6.20;77.10;;;;;;5095585;28;20053;-73
2024/03/25 06:55:55;;;;;;;;;;;5.80;78.10;;;;;;5104968;28;20086;-74
2024/03/25 06:58:21;;;;;;;;;;;5.50;79.40;;;;;;5104937;28;19993;-73
2024/03/25 07:00:48;;;;;;;;;;;5.30;79.20;;;;;;5099527;27;19985;-74
2024/03/25 07:03:17;;;;;;;;;;;5.30;80.40;;;;;;5112519;27;19993;-73
2024/03/25 07:05:46;;;;;;;;;;;5.40;81.90;;;;;;5105517;27;20064;-74
2024/03/25 07:08:12;;;;;;;;;;;5.30;81.80;;;;;;5110403;27;19992;-73
2024/03/25 07:10:38;;;;;;;;;;;5.20;83.10;;;;;;5109055;27;20000;-73
2024/03/25 07:13:03;;;;;;;;;;;5.20;83.20;;;;;;5090116;28;20385;-73
2024/03/25 07:15:29;;;;;;;;;;;5.40;83.00;;;;;;5103088;28;20019;-74
2024/03/25 07:17:54;;;;;;;;;;;5.70;81.20;;;;;;5103846;27;19992;-73
2024/03/25 07:20:22;;;;;;;;;;;5.60;81.90;;;;;;5110490;27;19992;-74
2024/03/25 07:22:48;;;;;;;;;;;5.60;82.20;;;;;;5105322;27;19985;-74
2024/03/25 07:25:14;;;;;;;;;;;5.70;83.30;;;;;;5110076;27;20050;-73
2024/03/25 07:27:40;;;;;;;;;;;5.90;82.00;;;;;;5102530;27;19989;-75
2024/03/25 07:30:06;;;;;;;;;;;5.90;81.50;;;;;;5096550;27;20000;-75
2024/03/25 07:32:32;;;;;;;;;;;6.00;80.50;;;;;;5104006;28;19985;-76
2024/03/25 07:34:57;;;;;;;;;;;6.10;80.00;;;;;;5104949;28;20009;-76
2024/03/25 07:37:23;;;;;;;;;;;6.20;80.90;;;;;;5098062;28;20087;-75
2024/03/25 07:39:48;;;;;;;;;;;6.30;78.50;;;;;;5104478;28;20024;-76
2024/03/25 07:42:14;;;;;;;;;;;6.30;79.00;;;;;;5104407;28;19989;-76
2024/03/25 07:44:40;;;;;;;;;;;6.30;77.90;;;;;;5104177;28;19996;-76
2024/03/25 07:47:05;;;;;;;;;;;6.50;79.50;;;;;;5103190;28;19996;-75
2024/03/25 07:49:34;;;;;;;;;;;6.40;79.60;;;;;;5099997;28;20000;-75
2024/03/25 07:52:03;;;;;;;;;;;6.70;78.40;;;;;;5084274;28;20035;-76
2024/03/25 07:54:29;;;;;;;;;;;6.80;78.30;;;;;;5102391;28;20061;-76
2024/03/25 07:56:54;;;;;;;;;;;7.10;78.20;;;;;;5104031;28;19988;-76
2024/03/25 07:59:20;;;;;;;;;;;7.30;79.00;;;;;;5102651;28;20079;-75
2024/03/25 08:01:45;;;;;;;;;;;7.50;76.70;;;;;;5103172;28;19988;-76
2024/03/25 08:04:11;;;;;;;;;;;7.70;77.40;;;;;;5103986;28;19989;-75
2024/03/25 08:06:37;;;;;;;;;;;7.80;77.00;;;;;;5103815;28;20066;-76
2024/03/25 08:09:05;;;;;;;;;;;8.00;75.30;;;;;;5103593;28;20594;-76
2024/03/25 08:11:31;;;;;;;;;;;8.20;76.10;;;;;;5104033;28;20061;-75
2024/03/25 08:13:56;;;;;;;;;;;8.10;76.40;;;;;;5103922;28;20061;-76
2024/03/25 08:16:22;;;;;;;;;;;8.20;75.30;;;;;;5103878;28;19988;-76
2024/03/25 08:18:48;;;;;;;;;;;8.20;73.30;;;;;;5103290;28;19989;-75
2024/03/25 08:21:13;;;;;;;;;;;8.40;73.40;;;;;;5103893;28;20885;-75
2024/03/25 08:23:40;;;;;;;;;;;8.70;72.40;;;;;;5085161;28;20004;-76
2024/03/25 08:26:06;;;;;;;;;;;9.00;73.90;;;;;;5099722;28;19992;-76
2024/03/25 08:28:32;;;;;;;;;;;8.60;69.80;;;;;;5104017;27;20065;-76
2024/03/25 08:30:58;;;;;;;;;;;8.70;71.20;;;;;;5103706;28;20530;-76
2024/03/25 08:33:23;;;;;;;;;;;8.90;70.50;;;;;;5103180;28;20046;-75
2024/03/25 08:35:49;;;;;;;;;;;8.80;69.40;;;;;;5103446;28;20732;-76
2024/03/25 08:38:14;;;;;;;;;;;8.50;70.50;;;;;;5103363;28;19989;-76
2024/03/25 08:40:40;;;;;;;;;;;8.50;71.40;;;;;;5102490;28;19993;-76
2024/03/25 08:43:06;;;;;;;;;;;8.40;71.40;;;;;;5103037;28;19992;-76
2024/03/25 08:45:32;;;;;;;;;;;8.40;71.80;;;;;;5084977;28;20607;-76
2024/03/25 08:47:57;;;;;;;;;;;8.60;72.70;;;;;;5102928;28;19989;-76
2024/03/25 08:50:23;;;;;;;;;;;8.60;72.90;;;;;;5108869;27;20029;-76
2024/03/25 08:52:49;;;;;;;;;;;8.80;72.20;;;;;;5101628;27;20452;-76
2024/03/25 08:55:15;;;;;;;;;;;9.00;74.30;;;;;;5102884;28;20689;-75
2024/03/25 08:57:40;;;;;;;;;;;9.20;72.80;;;;;;5103033;28;20116;-76
2024/03/25 09:00:10;;;;;;;;;;;9.50;72.30;;;;;;5098061;28;20043;-75
2024/03/25 09:02:38;;;;;;;;;;;9.70;71.70;;;;;;5102729;28;19989;-76
2024/03/25 09:05:08;;;;;;;;;;;10.00;69.80;;;;;;5096553;28;20079;-76
2024/03/25 09:07:33;;;;;;;;;;;10.40;70.10;;;;;;5097190;28;20025;-76
2024/03/25 09:12:43;;;;;;;;;;;10.80;68.40;;;;;;5102710;28;20546;-76
2024/03/25 09:15:12;;;;;;;;;;;10.50;67.00;;;;;;5084497;28;20095;-76
2024/03/25 09:17:38;;;;;;;;;;;10.30;65.50;;;;;;5102964;28;20779;-76
2024/03/25 09:20:08;;;;;;;;;;;10.60;67.30;;;;;;5103124;28;20034;-76
2024/03/25 09:22:33;;;;;;;;;;;10.60;66.80;;;;;;5102685;28;19988;-76
2024/03/25 09:24:59;;;;;;;;;;;10.70;65.40;;;;;;5102512;28;19989;-76
2024/03/25 09:27:24;;;;;;;;;;;10.90;64.90;;;;;;5101750;28;19993;-76
2024/03/25 09:29:50;;;;;;;;;;;11.20;65.00;;;;;;5102368;28;19993;-76
2024/03/25 09:32:15;;;;;;;;;;;11.60;64.30;;;;;;5102568;28;19989;-76
2024/03/25 09:34:41;;;;;;;;;;;11.90;63.40;;;;;;5102252;28;20012;-76
2024/03/25 09:37:06;;;;;;;;;;;11.80;62.90;;;;;;5102511;28;20017;-76
2024/03/25 09:39:32;;;;;;;;;;;12.00;62.10;;;;;;5102277;28;20083;-76
2024/03/25 09:42:01;;;;;;;;;;;12.60;62.30;;;;;;5102832;28;19996;-76
2024/03/25 09:44:28;;;;;;;;;;;13.90;59.60;;;;;;5102391;28;19996;-76
2024/03/25 09:46:54;;;;;;;;;;;15.30;57.10;;;;;;5102657;28;19988;-76
2024/03/25 09:49:20;;;;;;;;;;;15.40;49.80;;;;;;5102790;28;19985;-76
2024/03/25 09:51:46;;;;;;;;;;;15.30;48.80;;;;;;5106856;28;20036;-76
2024/03/25 09:54:11;;;;;;;;;;;14.20;49.00;;;;;;5103555;28;20479;-76
2024/03/25 09:56:38;;;;;;;;;;;14.10;49.90;;;;;;5106323;28;19988;-76
2024/03/25 09:59:04;;;;;;;;;;;13.30;50.40;;;;;;5106898;28;19998;-75
2024/03/25 10:01:29;;;;;;;;;;;13.70;50.40;;;;;;5099641;28;19989;-76
2024/03/25 10:03:55;;;;;;;;;;;14.10;50.30;;;;;;5106381;28;19985;-75
2024/03/25 10:06:20;;;;;;;;;;;13.30;51.60;;;;;;5106335;28;20574;-76
2024/03/25 10:08:46;;;;;;;;;;;12.90;51.20;;;;;;5106236;28;19989;-75
2024/03/25 10:11:13;;;;;;;;;;;12.70;52.10;;;;;;5106602;28;20050;-76
2024/03/25 10:13:40;;;;;;;;;;;13.20;51.50;;;;;;5105879;28;20009;-76
2024/03/25 10:16:06;;;;;;;;;;;13.00;50.60;;;;;;5113111;27;19993;-76
2024/03/25 10:18:33;;;;;;;;;;;13.00;50.90;;;;;;5106359;28;20647;-76
2024/03/25 10:20:59;;;;;;;;;;;13.10;52.40;;;;;;5106731;28;20099;-76
2024/03/25 10:23:25;;;;;;;;;;;13.20;50.80;;;;;;5100826;28;19992;-76
2024/03/25 10:25:54;;;;;;;;;;;13.10;51.10;;;;;;5106463;27;20483;-76
2024/03/25 10:28:20;;;;;;;;;;;13.10;51.50;;;;;;5099566;28;20456;-76
2024/03/25 10:30:45;;;;;;;;;;;13.20;51.60;;;;;;5105875;28;19996;-75
2024/03/25 10:33:11;;;;;;;;;;;13.40;49.90;;;;;;5105869;28;19999;-76
2024/03/25 10:35:37;;;;;;;;;;;13.50;49.90;;;;;;5106197;28;20009;-76
2024/03/25 10:38:07;;;;;;;;;;;13.60;50.40;;;;;;5105725;28;20807;-76
2024/03/25 10:40:33;;;;;;;;;;;13.70;49.40;;;;;;5106204;28;20633;-76
2024/03/25 10:42:59;;;;;;;;;;;14.40;48.00;;;;;;5104825;28;19995;-76
2024/03/25 10:45:27;;;;;;;;;;;14.40;47.80;;;;;;5096748;28;19989;-76
2024/03/25 10:47:52;;;;;;;;;;;15.20;46.80;;;;;;5101036;28;19989;-76
2024/03/25 10:50:21;;;;;;;;;;;14.60;45.80;;;;;;5110077;27;19989;-76
2024/03/25 10:52:46;;;;;;;;;;;14.30;46.20;;;;;;5078388;28;20555;-76
2024/03/25 10:55:12;;;;;;;;;;;14.70;46.00;;;;;;5105565;28;20015;-76
2024/03/25 10:57:38;;;;;;;;;;;14.40;45.20;;;;;;5104805;28;20037;-76
2024/03/25 11:00:04;;;;;;;;;;;14.00;44.60;;;;;;5105408;28;20019;-75
2024/03/25 11:02:30;;;;;;;;;;;14.20;45.70;;;;;;5105426;28;19988;-76
2024/03/25 11:04:57;;;;;;;;;;;14.20;44.70;;;;;;5105149;28;20087;-75
2024/03/25 11:07:30;;;;;;;;;;;14.20;45.20;;;;;;5105312;28;20025;-75
2024/03/25 11:10:02;;;;;;;;;;;13.80;45.50;;;;;;5096710;28;20046;-76
2024/03/25 11:12:32;;;;;;;;;;;14.00;48.80;;;;;;5105705;28;19989;-76
2024/03/25 11:14:57;;;;;;;;;;;14.60;45.40;;;;;;5085988;28;20356;-75
2024/03/25 11:17:23;;;;;;;;;;;14.50;45.50;;;;;;5106692;27;20034;-76
2024/03/25 11:19:48;;;;;;;;;;;14.80;44.90;;;;;;5103618;28;20538;-76
2024/03/25 11:22:14;;;;;;;;;;;15.10;45.70;;;;;;5105080;28;20423;-76
2024/03/25 11:24:43;;;;;;;;;;;14.90;43.40;;;;;;5104724;28;20434;-76
2024/03/25 11:27:09;;;;;;;;;;;15.10;44.10;;;;;;5098240;28;19996;-76
2024/03/25 11:29:35;;;;;;;;;;;15.40;43.70;;;;;;5101460;28;19996;-76
2024/03/25 11:32:04;;;;;;;;;;;15.30;44.70;;;;;;5086537;28;20074;-75
2024/03/25 11:34:29;;;;;;;;;;;15.40;42.00;;;;;;5105321;28;20016;-76
2024/03/25 11:36:57;;;;;;;;;;;15.30;41.20;;;;;;5104680;28;19988;-76
2024/03/25 11:39:23;;;;;;;;;;;15.40;42.50;;;;;;5104898;28;19988;-75
2024/03/25 11:41:49;;;;;;;;;;;15.50;41.80;;;;;;5105296;28;19995;-76
2024/03/25 11:44:14;;;;;;;;;;;15.70;42.80;;;;;;5104586;28;20125;-76
2024/03/25 11:46:40;;;;;;;;;;;15.50;39.10;;;;;;5104868;28;19992;-76
2024/03/25 11:49:07;;;;;;;;;;;15.20;37.10;;;;;;5104756;28;20014;-75
2024/03/25 11:51:35;;;;;;;;;;;15.30;38.50;;;;;;5108445;27;20372;-75
2024/03/25 11:54:04;;;;;;;;;;;15.50;36.90;;;;;;5099176;28;20617;-76
2024/03/25 11:56:30;;;;;;;;;;;15.30;36.00;;;;;;5104220;28;20467;-75
2024/03/25 11:58:56;;;;;;;;;;;15.30;34.00;;;;;;5104259;28;19988;-76
2024/03/25 12:01:21;;;;;;;;;;;15.50;35.90;;;;;;5097160;28;19989;-76
2024/03/25 12:03:47;;;;;;;;;;;15.50;34.40;;;;;;5104220;28;19988;-75
2024/03/25 12:06:12;;;;;;;;;;;15.70;36.40;;;;;;5103331;28;20038;-76
2024/03/25 12:11:17;;;;;;;;;;;16.10;36.00;;;;;;5104142;28;19993;-75
2024/03/25 12:11:23;;;;;;;;;;;15.80;35.60;;;;;;5103986;28;19993;-76
2024/03/25 12:13:49;;;;;;;;;;;15.70;35.30;;;;;;5103359;28;20124;-76
2024/03/25 12:16:15;;;;;;;;;;;15.70;36.10;;;;;;5104017;28;19999;-76
2024/03/25 12:18:41;;;;;;;;;;;15.90;36.10;;;;;;5103823;28;20000;-76
2024/03/25 12:21:07;;;;;;;;;;;16.20;37.30;;;;;;5103893;28;19995;-76
2024/03/25 12:23:33;;;;;;;;;;;16.10;33.70;;;;;;5103387;28;20037;-76
2024/03/25 12:26:02;;;;;;;;;;;15.90;32.10;;;;;;5103766;28;19988;-76
2024/03/25 12:28:28;;;;;;;;;;;15.80;32.10;;;;;;5103052;28;20006;-75
2024/03/25 12:30:57;;;;;;;;;;;15.90;31.20;;;;;;5103500;28;20336;-76
2024/03/25 12:33:23;;;;;;;;;;;16.00;32.10;;;;;;5100467;28;19989;-76
2024/03/25 12:35:49;;;;;;;;;;;16.00;30.70;;;;;;5095584;28;19989;-76
2024/03/25 12:38:28;;;;;;;;;;;16.10;32.00;;;;;;5103337;28;20375;-76
2024/03/25 12:40:54;;;;;;;;;;;16.10;30.30;;;;;;5104201;28;19989;-76
2024/03/25 12:43:20;;;;;;;;;;;16.20;31.00;;;;;;5092952;28;19995;-75
2024/03/25 12:45:45;;;;;;;;;;;16.30;31.40;;;;;;5103875;28;20087;-76
2024/03/25 12:48:11;;;;;;;;;;;16.30;30.00;;;;;;5103659;28;20036;-76
2024/03/25 12:50:37;;;;;;;;;;;15.90;30.80;;;;;;5109728;27;20071;-75
2024/03/25 12:53:03;;;;;;;;;;;15.70;29.00;;;;;;5095665;28;20448;-76
2024/03/25 12:55:31;;;;;;;;;;;15.70;30.00;;;;;;5103007;28;20009;-76
2024/03/25 12:57:57;;;;;;;;;;;15.90;30.00;;;;;;5102818;28;20083;-76
2024/03/25 13:00:22;;;;;;;;;;;15.80;28.70;;;;;;5096657;28;20053;-76
2024/03/25 13:02:48;;;;;;;;;;;15.80;29.10;;;;;;5102904;28;19995;-76
2024/03/25 13:05:14;;;;;;;;;;;15.90;28.50;;;;;;5109301;27;20037;-76
2024/03/25 13:07:39;;;;;;;;;;;16.00;28.80;;;;;;5102846;28;20003;-76
2024/03/25 13:10:05;;;;;;;;;;;16.10;29.50;;;;;;5102675;28;20531;-76
2024/03/25 13:12:31;;;;;;;;;;;16.30;29.10;;;;;;5102997;28;19992;-76
2024/03/25 13:14:58;;;;;;;;;;;16.10;28.70;;;;;;5097616;28;20377;-76
2024/03/25 13:17:24;;;;;;;;;;;16.20;28.80;;;;;;5103363;28;19989;-75
2024/03/25 13:19:50;;;;;;;;;;;16.20;30.00;;;;;;5103133;28;19985;-76
2024/03/25 13:22:15;;;;;;;;;;;16.10;28.80;;;;;;5102721;28;19995;-75
2024/03/25 13:24:41;;;;;;;;;;;16.10;29.70;;;;;;5102896;28;19989;-76
2024/03/25 13:27:06;;;;;;;;;;;16.20;29.00;;;;;;5101874;28;20427;-76
2024/03/25 13:29:32;;;;;;;;;;;16.10;27.80;;;;;;5098137;28;20363;-76
2024/03/25 13:31:57;;;;;;;;;;;16.10;28.00;;;;;;5102635;28;19988;-75
2024/03/25 13:34:23;;;;;;;;;;;16.00;28.50;;;;;;5102758;28;20120;-75
2024/03/25 13:36:49;;;;;;;;;;;15.90;28.50;;;;;;5102437;28;19996;-76
2024/03/25 13:39:14;;;;;;;;;;;15.70;27.80;;;;;;5103108;28;19988;-76
2024/03/25 13:41:40;;;;;;;;;;;15.80;29.30;;;;;;5102300;28;19989;-76
2024/03/25 13:44:06;;;;;;;;;;;15.80;29.70;;;;;;5102405;28;20054;-76
2024/03/25 13:46:31;;;;;;;;;;;15.70;29.50;;;;;;5102858;28;20001;-76
2024/03/25 13:48:57;;;;;;;;;;;15.70;30.20;;;;;;5103266;28;19989;-76
2024/03/25 13:51:22;;;;;;;;;;;15.60;29.80;;;;;;5109056;28;19988;-75
2024/03/25 13:53:48;;;;;;;;;;;15.60;29.90;;;;;;5093980;28;20077;-76
2024/03/25 13:56:13;;;;;;;;;;;15.60;30.50;;;;;;5102601;28;19996;-75
2024/03/25 13:58:39;;;;;;;;;;;15.50;30.60;;;;;;5102504;28;20001;-76
2024/03/25 14:01:05;;;;;;;;;;;15.50;32.20;;;;;;5095307;28;19995;-75
2024/03/25 14:03:31;;;;;;;;;;;15.50;32.70;;;;;;5101963;28;19993;-75
2024/03/25 14:05:56;;;;;;;;;;;15.50;32.50;;;;;;5102003;28;20495;-76
2024/03/25 14:08:22;;;;;;;;;;;15.50;32.20;;;;;;5084159;28;20042;-76
2024/03/25 14:10:56;;;;;;;;;;;15.60;33.90;;;;;;5102787;28;19988;-76
2024/03/25 14:13:22;;;;;;;;;;;15.70;34.80;;;;;;5097098;28;20076;-76
2024/03/25 14:15:49;;;;;;;;;;;15.80;34.30;;;;;;5102367;28;20012;-76
2024/03/25 14:18:14;;;;;;;;;;;15.80;35.50;;;;;;5097752;28;20014;-76
2024/03/25 14:20:40;;;;;;;;;;;16.00;35.80;;;;;;5102288;28;19989;-76
2024/03/25 14:23:06;;;;;;;;;;;16.10;36.10;;;;;;5100469;28;20069;-76
2024/03/25 14:25:32;;;;;;;;;;;16.20;36.10;;;;;;5102271;28;19993;-76
2024/03/25 14:27:58;;;;;;;;;;;16.30;36.80;;;;;;5095936;28;20000;-76